Météo Nord-Pas-de-Calais   La météo au plus près de chez vous

Station météorologique

Observations météo à Quimper (29216)

29216001 82 m Dernier relevé à 14:54
21.7°C
Humidité 66 % Vent 22 km/h 1022.9 hPa

Journée consultée

Mercredi 2 Septembre 2026

Synthèse de la journée

Périodes de référence en UTC

Température maximale

22.4°C

à 14:00

06h 06h

Température minimale

11.3°C

à 08:00

18h 18h

Rafale maximale

42 km/h

à 14:18

00h 00h

Précipitations

0.2 mm

Cumul quotidien

06h 06h

Ensoleillement

4h 48 mins

Durée quotidienne

00h 00h

Graphiques de la journée

Heure locale Réduire

Données détaillées

Relevés météo

Pas de 6 minutes Afficher les relevés infra-horaires
Relevés météo détaillés à Quimper pour le Mercredi 2 Septembre 2026
Heure Température °C Point de rosée °C Humidité % Vent moyen (raf.), km/h Précipitations mm Température à 10 cm °C Température à 20 cm °C Température à 50 cm °C Visibilité m État du sol   Ensoleillement min Rayonnement global W/m² Pression hPa Nébulosité Octas
14:54 21.7 °C 15.5 °C 68 % 20 km/h (32 km/h) 0 mm0 mm 18.7 °C 18.3 °C 19.2 °C 60000 m 0   3 min 161 W/m² 1022.9 hPa
14:48 21.5 °C 15.1 °C 67 % 21 km/h (33 km/h) 0 mm0 mm 18.6 °C 18.3 °C 19.2 °C 60000 m 0   2 min 188.7 W/m² 1023 hPa
14:42 21.6 °C 15.2 °C 67 % 22 km/h (33 km/h) 0 mm0 mm 18.6 °C 18.3 °C 19.2 °C 60000 m 0   4 min 188 W/m² 1022.9 hPa
14:36 21.7 °C 15.1 °C 66 % 23 km/h (35 km/h) 0 mm0 mm 18.6 °C 18.3 °C 19.2 °C 60000 m 0   2 min 177.8 W/m² 1022.9 hPa
14:30 21.4 °C 15 °C 67 % 24 km/h (39 km/h) 0 mm0 mm 18.5 °C 18.3 °C 19.2 °C 60000 m 0   0 min 119.9 W/m² 1023 hPa
14:24 21.7 °C 15.3 °C 67 % 26 km/h (42 km/h) 0 mm0 mm 18.4 °C 18.3 °C 19.2 °C 60000 m 0   1 min 153.2 W/m² 1022.8 hPa
14:18 21.7 °C 15.1 °C 66 % 25 km/h (42 km/h) 0 mm0 mm 18.4 °C 18.3 °C 19.2 °C 60000 m 0   5 min 213.1 W/m² 1022.8 hPa
14:12 21.7 °C 15.3 °C 67 % 24 km/h (37 km/h) 0 mm0 mm 18.3 °C 18.3 °C 19.2 °C 60000 m 0   4 min 236.8 W/m² 1022.8 hPa
14:06 21.5 °C 14.9 °C 66 % 24 km/h (35 km/h) 0 mm0 mm 18.3 °C 18.3 °C 19.2 °C 60000 m 0   4 min 219.5 W/m² 1022.9 hPa
14:00 21.6 °C 14.7 °C 65 % 23 km/h (34 km/h) 0 mm0 mm 18.3 °C 18.2 °C 19.2 °C 60000 m 0   4 min 219.1 W/m² 1023 hPa
13:54 21.9 °C 15.3 °C 66 % 22 km/h (33 km/h) 0 mm0 mm 18.2 °C 18.2 °C 19.2 °C 60000 m 0   5 min 223.6 W/m² 1022.9 hPa
13:48 22.3 °C 15.6 °C 66 % 22 km/h (35 km/h) 0 mm0 mm 18.2 °C 18.3 °C 19.2 °C 60000 m 0   4 min 219.9 W/m² 1023 hPa
13:42 21.8 °C 14.9 °C 65 % 21 km/h (35 km/h) 0 mm0 mm 18.2 °C 18.2 °C 19.2 °C 60000 m 0   5 min 259.3 W/m² 1023 hPa
13:36 21.5 °C 15.1 °C 67 % 22 km/h (37 km/h) 0 mm0 mm 18.1 °C 18.2 °C 19.2 °C 60000 m 0   4 min 223 W/m² 1023.1 hPa
13:30 21.7 °C 15.1 °C 66 % 23 km/h (37 km/h) 0 mm0 mm 18.1 °C 18.2 °C 19.2 °C 60000 m 0   4 min 211.8 W/m² 1023.1 hPa
13:24 22.1 °C 15 °C 64 % 21 km/h (37 km/h) 0 mm0 mm 18 °C 18.2 °C 19.3 °C 60000 m 0   5 min 283.6 W/m² 1023.1 hPa
13:18 21.6 °C 15.4 °C 68 % 21 km/h (32 km/h) 0 mm0 mm 18 °C 18.2 °C 19.3 °C 60000 m 0   5 min 239.9 W/m² 1023.1 hPa
13:12 20.8 °C 14.4 °C 67 % 23 km/h (32 km/h) 0 mm0 mm 18 °C 18.2 °C 19.2 °C 60000 m 0   0 min 105.3 W/m² 1023.2 hPa
13:06 20.9 °C 14.5 °C 67 % 22 km/h (32 km/h) 0 mm0 mm 18 °C 18.2 °C 19.3 °C 60000 m 0   0 min 111.9 W/m² 1023.2 hPa
13:00 21.4 °C 14.5 °C 65 % 22 km/h (32 km/h) 0 mm0 mm 17.9 °C 18.2 °C 19.3 °C 60000 m 0   2 min 166.6 W/m² 1023.2 hPa 7 Octas
12:54 21.3 °C 15.2 °C 68 % 20 km/h (32 km/h) 0 mm0 mm 17.8 °C 18.2 °C 19.3 °C 60000 m 0   4 min 216.9 W/m² 1023.3 hPa
12:48 21.2 °C 14.6 °C 66 % 15 km/h (27 km/h) 0 mm0 mm 17.8 °C 18.3 °C 19.3 °C 60000 m 0   1 min 152.2 W/m² 1023.2 hPa
12:42 21.2 °C 15.1 °C 68 % 16 km/h (28 km/h) 0 mm0 mm 17.8 °C 18.2 °C 19.2 °C 60000 m 0   2 min 170.1 W/m² 1023.1 hPa
12:36 21.2 °C 14.6 °C 66 % 19 km/h (29 km/h) 0 mm0 mm 17.8 °C 18.2 °C 19.3 °C 60000 m 0   1 min 116.4 W/m² 1023.2 hPa
12:30 21.5 °C 14.6 °C 65 % 19 km/h (29 km/h) 0 mm0 mm 17.8 °C 18.2 °C 19.2 °C 60000 m 0   3 min 194.5 W/m² 1023.1 hPa
12:24 21.9 °C 15 °C 65 % 20 km/h (32 km/h) 0 mm0 mm 17.7 °C 18.2 °C 19.2 °C 60000 m 0   5 min 274.6 W/m² 1023 hPa
12:18 21.4 °C 15 °C 67 % 21 km/h (32 km/h) 0 mm0 mm 17.7 °C 18.2 °C 19.3 °C 60000 m 0   6 min 281.3 W/m² 1023 hPa
12:12 20.6 °C 14.5 °C 68 % 18 km/h (30 km/h) 0 mm0 mm 17.7 °C 18.2 °C 19.3 °C 60000 m 0   2 min 149.5 W/m² 1023 hPa
12:06 20.5 °C 14.6 °C 69 % 20 km/h (29 km/h) 0 mm0 mm 17.7 °C 18.2 °C 19.2 °C 60000 m 0   2 min 145.3 W/m² 1023 hPa
12:00 20.7 °C 14.3 °C 67 % 22 km/h (31 km/h) 0 mm0 mm 17.7 °C 18.3 °C 19.3 °C 60000 m 0   3 min 154.4 W/m² 1023 hPa
11:54 21.2 °C 14.6 °C 66 % 22 km/h (31 km/h) 0 mm0 mm 17.6 °C 18.2 °C 19.2 °C 60000 m 0   6 min 244.1 W/m² 1022.9 hPa
11:48 20.7 °C 14.8 °C 69 % 22 km/h (32 km/h) 0 mm0 mm 17.6 °C 18.3 °C 19.3 °C 60000 m 0   3 min 158.9 W/m² 1022.9 hPa
11:42 20.5 °C 14.2 °C 67 % 22 km/h (30 km/h) 0 mm0 mm 17.6 °C 18.3 °C 19.2 °C 60000 m 0   4 min 182.3 W/m² 1022.9 hPa
11:36 20.8 °C 14.4 °C 67 % 21 km/h (30 km/h) 0 mm0 mm 17.6 °C 18.3 °C 19.3 °C 60000 m 0   6 min 216.3 W/m² 1023 hPa
11:30 20.9 °C 14.8 °C 68 % 20 km/h (26 km/h) 0 mm0 mm 17.5 °C 18.3 °C 19.2 °C 60000 m 0   6 min 210.3 W/m² 1022.9 hPa
11:24 20.9 °C 14.8 °C 68 % 21 km/h (28 km/h) 0 mm0 mm 17.5 °C 18.3 °C 19.3 °C 60000 m 0   6 min 201.8 W/m² 1022.8 hPa
11:18 20.4 °C 14.7 °C 70 % 19 km/h (26 km/h) 0 mm0 mm 17.5 °C 18.3 °C 19.3 °C 53110 m 0   6 min 207.5 W/m² 1022.9 hPa
11:12 20.2 °C 14.8 °C 71 % 18 km/h (25 km/h) 0 mm0 mm 17.6 °C 18.3 °C 19.3 °C 19990 m 0   6 min 202.8 W/m² 1022.8 hPa
11:06 19.9 °C 14.9 °C 73 % 19 km/h (25 km/h) 0 mm0 mm 17.5 °C 18.3 °C 19.3 °C 18610 m 0   6 min 190.4 W/m² 1022.8 hPa
11:00 19.7 °C 14.9 °C 74 % 19 km/h (27 km/h) 0 mm0 mm 17.5 °C 18.3 °C 19.3 °C 18620 m 0   6 min 178 W/m² 1022.8 hPa 8 Octas
10:54 19.2 °C 14.9 °C 76 % 19 km/h (26 km/h) 0 mm0 mm 17.5 °C 18.3 °C 19.3 °C 60000 m 0   4 min 139.9 W/m² 1022.7 hPa
10:48 19.2 °C 15.1 °C 77 % 18 km/h (25 km/h) 0 mm0 mm 17.5 °C 18.3 °C 19.3 °C 60000 m 0   3 min 116.7 W/m² 1022.8 hPa
10:42 19.1 °C 15.4 °C 79 % 15 km/h (22 km/h) 0 mm0 mm 17.5 °C 18.3 °C 19.3 °C 60000 m 0   6 min 144 W/m² 1022.7 hPa
10:36 19 °C 15.5 °C 80 % 15 km/h (23 km/h) 0 mm0 mm 17.5 °C 18.4 °C 19.3 °C 60000 m 0   6 min 140.5 W/m² 1022.7 hPa
10:30 18.7 °C 15.4 °C 81 % 15 km/h (23 km/h) 0 mm0 mm 17.5 °C 18.4 °C 19.3 °C 60000 m 0   4 min 120.4 W/m² 1022.8 hPa
10:24 18.8 °C 15.8 °C 83 % 12 km/h (18 km/h) 0 mm0 mm 17.5 °C 18.4 °C 19.3 °C 60000 m 0   5 min 138.5 W/m² 1022.8 hPa
10:18 18.4 °C 16 °C 86 % 12 km/h (17 km/h) 0 mm0 mm 17.5 °C 18.4 °C 19.3 °C 60000 m 0   6 min 146.6 W/m² 1023 hPa
10:12 17.8 °C 15.4 °C 86 % 12 km/h (15 km/h) 0 mm0 mm 17.5 °C 18.4 °C 19.3 °C 60000 m 0   6 min 115 W/m² 1023 hPa
10:06 17.5 °C 15.7 °C 89 % 9 km/h (15 km/h) 0 mm0 mm 17.6 °C 18.5 °C 19.3 °C 60000 m 0   6 min 116.5 W/m² 1022.9 hPa
10:00 17.1 °C 15.6 °C 91 % 9 km/h (14 km/h) 0 mm0.2 mm 17.5 °C 18.5 °C 19.2 °C 60000 m 0   6 min 108.8 W/m² 1022.9 hPa
09:54 16.6 °C 15.6 °C 94 % 8 km/h (14 km/h) 0 mm0 mm 17.6 °C 18.4 °C 19.3 °C 60000 m 0   6 min 106.6 W/m² 1022.9 hPa
09:48 16.2 °C 15.6 °C 96 % 6 km/h (9 km/h) 0 mm0 mm 17.6 °C 18.5 °C 19.3 °C 59870 m 0   6 min 109.9 W/m² 1022.9 hPa
09:42 16 °C 15.5 °C 97 % 6 km/h (8 km/h) 0 mm0 mm 17.6 °C 18.5 °C 19.3 °C 57080 m 0   6 min 90.1 W/m² 1023 hPa
09:36 15.7 °C 15.4 °C 98 % 5 km/h (8 km/h) 0 mm0 mm 17.7 °C 18.6 °C 19.3 °C 52980 m 0   6 min 88.3 W/m² 1022.9 hPa
09:30 15.7 °C 15.5 °C 99 % 5 km/h (8 km/h) 0 mm0 mm 17.7 °C 18.5 °C 19.2 °C 20000 m 0   6 min 77 W/m² 1022.9 hPa
09:24 15.3 °C 15.3 °C 100 % 5 km/h (8 km/h) 0 mm0 mm 17.7 °C 18.6 °C 19.3 °C 20000 m 0   6 min 75.8 W/m² 1022.8 hPa
09:18 14.8 °C 14.8 °C 100 % 5 km/h (8 km/h) 0 mm0 mm 17.7 °C 18.6 °C 19.3 °C 19440 m 0   6 min 75.6 W/m² 1022.8 hPa
09:12 14.7 °C 14.7 °C 100 % 4 km/h (7 km/h) 0.2 mm0 mm 17.7 °C 18.6 °C 19.3 °C 18670 m 0   6 min 59.4 W/m² 1022.7 hPa
09:06 15 °C 15 °C 100 % 4 km/h (7 km/h) 0 mm0 mm 17.7 °C 18.6 °C 19.3 °C 15920 m 0   5 min 53.1 W/m² 1022.7 hPa
09:00 14.6 °C 14.6 °C 100 % 3 km/h (6 km/h) 0 mm0 mm 17.8 °C 18.6 °C 19.3 °C 15170 m 0   6 min 53.3 W/m² 1022.7 hPa
08:54 14.4 °C 14.4 °C 100 % 2 km/h (4 km/h) 0 mm0 mm 17.8 °C 18.6 °C 19.3 °C 14390 m 0   6 min 47.5 W/m² 1022.7 hPa
08:48 13.3 °C 13.3 °C 100 % 2 km/h (3 km/h) 0 mm0 mm 17.8 °C 18.6 °C 19.2 °C 12740 m 0   2 min 32.9 W/m² 1022.6 hPa
08:42 13 °C 13 °C 100 % 0 km/h (3 km/h) 0 mm0 mm 17.9 °C 18.7 °C 19.3 °C 12200 m 0   1 min 27.9 W/m² 1022.7 hPa
08:36 12.8 °C 12.8 °C 100 % 2 km/h (3 km/h) 0 mm0 mm 17.9 °C 18.7 °C 19.3 °C 11930 m 0   6 min 28 W/m² 1022.6 hPa
08:30 12.4 °C 12.4 °C 100 % 2 km/h (3 km/h) 0 mm0 mm 17.9 °C 18.7 °C 19.3 °C 12090 m 0   6 min 23.8 W/m² 1022.6 hPa
08:24 12.1 °C 12.1 °C 100 % 2 km/h (3 km/h) 0 mm0 mm 17.9 °C 18.7 °C 19.3 °C 8240 m 0   6 min 20 W/m² 1022.6 hPa
08:18 11.7 °C 11.7 °C 100 % 3 km/h (4 km/h) 0 mm0 mm 17.9 °C 18.7 °C 19.3 °C 2790 m 0   0 min 13 W/m² 1022.6 hPa
08:12 11.6 °C 11.6 °C 100 % 3 km/h (4 km/h) 0 mm0 mm 17.9 °C 18.7 °C 19.3 °C 2910 m 0   0 min 10.3 W/m² 1022.5 hPa
08:06 11.6 °C 11.6 °C 100 % 3 km/h (4 km/h) 0 mm0 mm 18 °C 18.8 °C 19.3 °C 5510 m 0   2 min 8.6 W/m² 1022.4 hPa
08:00 11.5 °C 11.5 °C 100 % 3 km/h (4 km/h) 0 mm0 mm 18 °C 18.8 °C 19.3 °C 4080 m 0   1 min 1.2 W/m² 1022.5 hPa
07:54 11.6 °C 11.6 °C 100 % 3 km/h (4 km/h) 0 mm0 mm 18 °C 18.8 °C 19.3 °C 6340 m 0   0 min 0 W/m² 1022.4 hPa
07:48 11.7 °C 11.7 °C 100 % 3 km/h (4 km/h) 0 mm0 mm 18 °C 18.8 °C 19.3 °C 4600 m 0   0 min 0 W/m² 1022.4 hPa
07:42 11.5 °C 11.5 °C 100 % 3 km/h (3 km/h) 0 mm0 mm 18.1 °C 18.8 °C 19.3 °C 1450 m 0   0 min 0 W/m² 1022.4 hPa
07:36 11.5 °C 11.5 °C 100 % 3 km/h (4 km/h) 0 mm0 mm 18.1 °C 18.8 °C 19.3 °C 780 m 0   0 min 0 W/m² 1022.4 hPa
07:30 11.4 °C 11.4 °C 100 % 3 km/h (5 km/h) 0 mm0 mm 18.1 °C 18.8 °C 19.3 °C 980 m 0   0 min 0 W/m² 1022.3 hPa
07:24 11.4 °C 11.2 °C 99 % 4 km/h (5 km/h) 0 mm0 mm 18.1 °C 18.9 °C 19.3 °C 1640 m 0   0 min 0 W/m² 1022.3 hPa
07:18 11.5 °C 11.3 °C 99 % 4 km/h (5 km/h) 0 mm0 mm 18.1 °C 18.9 °C 19.3 °C 5180 m 0   0 min 0 W/m² 1022.3 hPa
07:12 11.7 °C 11.7 °C 100 % 3 km/h (4 km/h) 0 mm0 mm 18.2 °C 18.9 °C 19.3 °C 2790 m 0   0 min 0 W/m² 1022.3 hPa
07:06 11.7 °C 11.7 °C 100 % 3 km/h (3 km/h) 0 mm0 mm 18.2 °C 18.9 °C 19.3 °C 5430 m 0   0 min 0 W/m² 1022.3 hPa
07:00 11.5 °C 11.3 °C 99 % 3 km/h (4 km/h) 0 mm0 mm 18.2 °C 18.9 °C 19.3 °C 620 m 0   0 min 0 W/m² 1022.3 hPa
06:54 11.6 °C 11.4 °C 99 % 3 km/h (4 km/h) 0 mm0 mm 18.2 °C 18.9 °C 19.3 °C 740 m 0   0 min 0 W/m² 1022.2 hPa
06:48 11.9 °C 11.9 °C 100 % 3 km/h (4 km/h) 0 mm0 mm 18.3 °C 18.9 °C 19.3 °C 3110 m 0   0 min 0 W/m² 1022.2 hPa
06:42 11.6 °C 11.4 °C 99 % 3 km/h (3 km/h) 0 mm0 mm 18.3 °C 18.9 °C 19.3 °C 810 m 0   0 min 0 W/m² 1022.3 hPa
06:36 11.4 °C 11.2 °C 99 % 3 km/h (4 km/h) 0 mm0 mm 18.3 °C 19 °C 19.3 °C 720 m 0   0 min 0 W/m² 1022.3 hPa
06:30 11.4 °C 11.2 °C 99 % 4 km/h (5 km/h) 0 mm0 mm 18.3 °C 19 °C 19.3 °C 1640 m 0   0 min 0 W/m² 1022.3 hPa
06:24 11.7 °C 11.5 °C 99 % 4 km/h (5 km/h) 0 mm0 mm 18.4 °C 19 °C 19.3 °C 4450 m 0   0 min 0 W/m² 1022.3 hPa
06:18 12 °C 11.8 °C 99 % 4 km/h (5 km/h) 0 mm0 mm 18.4 °C 19 °C 19.3 °C 5150 m 0   0 min 0 W/m² 1022.4 hPa
06:12 12.3 °C 12.1 °C 99 % 3 km/h (4 km/h) 0 mm0 mm 18.4 °C 19 °C 19.3 °C 680 m 0   0 min 0 W/m² 1022.5 hPa
06:06 12.2 °C 12 °C 99 % 3 km/h (3 km/h) 0 mm0 mm 18.4 °C 19 °C 19.3 °C 390 m 0   0 min 0 W/m² 1022.4 hPa
06:00 11.9 °C 11.7 °C 99 % 3 km/h (3 km/h) 0 mm0 mm 18.4 °C 19 °C 19.3 °C 420 m 0   0 min 0 W/m² 1022.4 hPa
05:54 11.9 °C 11.7 °C 99 % 3 km/h (3 km/h) 0 mm0 mm 18.4 °C 19 °C 19.3 °C 710 m 0   0 min 0 W/m² 1022.4 hPa
05:48 12.2 °C 12 °C 99 % 3 km/h (3 km/h) 0 mm0 mm 18.5 °C 19 °C 19.3 °C 3170 m 0   0 min 0 W/m² 1022.5 hPa
05:42 12.2 °C 12 °C 99 % 3 km/h (3 km/h) 0 mm0 mm 18.5 °C 19 °C 19.3 °C 6130 m 0   0 min 0 W/m² 1022.5 hPa
05:36 12.5 °C 12.3 °C 99 % 2 km/h (3 km/h) 0 mm0 mm 18.5 °C 19.1 °C 19.3 °C 7280 m 0   0 min 0 W/m² 1022.6 hPa
05:30 12.5 °C 12.3 °C 99 % 2 km/h (3 km/h) 0 mm0 mm 18.5 °C 19.1 °C 19.3 °C 6380 m 0   0 min 0 W/m² 1022.6 hPa
05:24 12.5 °C 12.3 °C 99 % 3 km/h (4 km/h) 0 mm0 mm 18.6 °C 19.1 °C 19.3 °C 13290 m 0   0 min 0 W/m² 1022.5 hPa
05:18 12.6 °C 12.4 °C 99 % 3 km/h (4 km/h) 0 mm0 mm 18.6 °C 19.1 °C 19.3 °C 1010 m 0   0 min 0 W/m² 1022.6 hPa
05:12 12.6 °C 12.4 °C 99 % 3 km/h (3 km/h) 0 mm0 mm 18.6 °C 19.1 °C 19.3 °C 1100 m 0   0 min 0 W/m² 1022.5 hPa
05:06 12.4 °C 12.1 °C 98 % 3 km/h (4 km/h) 0 mm0 mm 18.6 °C 19.1 °C 19.3 °C 7780 m 0   0 min 0 W/m² 1022.5 hPa
05:00 12.3 °C 12 °C 98 % 3 km/h (4 km/h) 0 mm0 mm 18.6 °C 19.1 °C 19.3 °C 9980 m 0   0 min 0 W/m² 1022.6 hPa 8 Octas
04:54 12.3 °C 11.8 °C 97 % 2 km/h (4 km/h) 0 mm0 mm 18.7 °C 19.1 °C 19.3 °C 15710 m 0   0 min 0 W/m² 1022.7 hPa
04:48 12.5 °C 12.2 °C 98 % 2 km/h (2 km/h) 0 mm0 mm 18.7 °C 19.1 °C 19.3 °C 19650 m 0   0 min 0 W/m² 1022.7 hPa
04:42 12.5 °C 12.2 °C 98 % 2 km/h (3 km/h) 0 mm0 mm 18.7 °C 19.1 °C 19.3 °C 44520 m 0   0 min 0 W/m² 1022.8 hPa
04:36 12.7 °C 12.4 °C 98 % 3 km/h (3 km/h) 0 mm0 mm 18.7 °C 19.1 °C 19.3 °C 18750 m 0   0 min 0 W/m² 1022.8 hPa
04:30 12.7 °C 12.2 °C 97 % 3 km/h (3 km/h) 0 mm0 mm 18.7 °C 19.2 °C 19.3 °C 17050 m 0   0 min 0 W/m² 1022.7 hPa
04:24 12.7 °C 12.2 °C 97 % 3 km/h (3 km/h) 0 mm0 mm 18.8 °C 19.2 °C 19.3 °C 16890 m 0   0 min 0 W/m² 1022.6 hPa
04:18 12.7 °C 12.1 °C 96 % 0 km/h (3 km/h) 0 mm0 mm 18.8 °C 19.2 °C 19.3 °C 19470 m 0   0 min 0 W/m² 1022.7 hPa
04:12 12.9 °C 12.3 °C 96 % 0 km/h (0 km/h) 0 mm0 mm 18.8 °C 19.2 °C 19.3 °C 60000 m 0   0 min 0 W/m² 1022.7 hPa
04:06 12.8 °C 12.2 °C 96 % 0 km/h (3 km/h) 0 mm0 mm 18.8 °C 19.2 °C 19.3 °C 60000 m 0   0 min 0 W/m² 1022.8 hPa
04:00 13.1 °C 12.6 °C 97 % 2 km/h (3 km/h) 0 mm0 mm 18.8 °C 19.2 °C 19.3 °C 60000 m 0   0 min 0 W/m² 1022.9 hPa 8 Octas
03:54 12.8 °C 12.2 °C 96 % 3 km/h (4 km/h) 0 mm0 mm 18.9 °C 19.2 °C 19.3 °C 60000 m 0   0 min 0 W/m² 1022.9 hPa
03:48 13.2 °C 12.6 °C 96 % 3 km/h (4 km/h) 0 mm0 mm 18.9 °C 19.2 °C 19.3 °C 60000 m 0   0 min 0 W/m² 1022.8 hPa
03:42 13.2 °C 12.6 °C 96 % 3 km/h (4 km/h) 0 mm0 mm 18.9 °C 19.3 °C 19.3 °C 60000 m 0   0 min 0 W/m² 1022.7 hPa
03:36 13.3 °C 12.7 °C 96 % 2 km/h (3 km/h) 0 mm0 mm 18.9 °C 19.3 °C 19.3 °C 60000 m 0   0 min 0 W/m² 1022.7 hPa
03:30 13.3 °C 12.7 °C 96 % 2 km/h (3 km/h) 0 mm0 mm 18.9 °C 19.3 °C 19.3 °C 60000 m 0   0 min 0 W/m² 1022.8 hPa
03:24 13.3 °C 12.7 °C 96 % 0 km/h (3 km/h) 0 mm0 mm 19 °C 19.3 °C 19.3 °C 60000 m 0   0 min 0 W/m² 1022.8 hPa
03:18 13.4 °C 12.8 °C 96 % 0 km/h (3 km/h) 0 mm0 mm 19 °C 19.3 °C 19.3 °C 59390 m 0   0 min 0 W/m² 1022.9 hPa
03:12 13.5 °C 13 °C 97 % 0 km/h (3 km/h) 0 mm0 mm 19 °C 19.3 °C 19.3 °C 59390 m 0   0 min 0 W/m² 1022.8 hPa
03:06 13.4 °C 12.8 °C 96 % 2 km/h (3 km/h) 0 mm0 mm 19 °C 19.3 °C 19.3 °C 60000 m 0   0 min 0 W/m² 1022.7 hPa
03:00 13.5 °C 13 °C 97 % 2 km/h (3 km/h) 0 mm0 mm 19 °C 19.4 °C 19.3 °C 60000 m 0   0 min 0 W/m² 1022.8 hPa 8 Octas
02:54 13.5 °C 12.9 °C 96 % 2 km/h (4 km/h) 0 mm0 mm 19 °C 19.3 °C 19.3 °C 60000 m 0   0 min 0 W/m² 1022.9 hPa
02:48 13.4 °C 12.8 °C 96 % 3 km/h (4 km/h) 0 mm0 mm 19.1 °C 19.3 °C 19.3 °C 60000 m 0   0 min 0 W/m² 1022.9 hPa
02:42 13.5 °C 12.7 °C 95 % 3 km/h (4 km/h) 0 mm0 mm 19.1 °C 19.3 °C 19.2 °C 60000 m 0   0 min 0 W/m² 1022.9 hPa
02:36 13.6 °C 12.8 °C 95 % 3 km/h (3 km/h) 0 mm0 mm 19.1 °C 19.4 °C 19.3 °C 60000 m 0   0 min 0 W/m² 1022.9 hPa
02:30 13.8 °C 13 °C 95 % 2 km/h (3 km/h) 0 mm0 mm 19.1 °C 19.4 °C 19.3 °C 60000 m 0   0 min 0 W/m² 1022.9 hPa
02:24 13.8 °C 13 °C 95 % 0 km/h (2 km/h) 0 mm0 mm 19.1 °C 19.4 °C 19.3 °C 60000 m 0   0 min 0 W/m² 1023 hPa
02:18 13.8 °C 12.9 °C 94 % 0 km/h (0 km/h) 0 mm0 mm 19.2 °C 19.4 °C 19.3 °C 60000 m 0   0 min 0 W/m² 1023 hPa
02:12 13.8 °C 12.9 °C 94 % 0 km/h (2 km/h) 0 mm0 mm 19.1 °C 19.4 °C 19.2 °C 60000 m 0   0 min 0 W/m² 1023.1 hPa
02:06 14 °C 13 °C 94 % 3 km/h (4 km/h) 0 mm0 mm 19.2 °C 19.4 °C 19.3 °C 60000 m 0   0 min 0 W/m² 1023 hPa
02:00 14.1 °C 13.3 °C 95 % 4 km/h (4 km/h) 0 mm0 mm 19.2 °C 19.5 °C 19.3 °C 60000 m 0   0 min 0 W/m² 1023 hPa 8 Octas
01:54 13.9 °C 13.1 °C 95 % 4 km/h (5 km/h) 0 mm0 mm 19.2 °C 19.4 °C 19.3 °C 60000 m 0   0 min 0 W/m² 1023 hPa
01:48 13.8 °C 13 °C 95 % 4 km/h (5 km/h) 0 mm0 mm 19.3 °C 19.5 °C 19.3 °C 60000 m 0   0 min 0 W/m² 1023 hPa
01:42 13.8 °C 13 °C 95 % 3 km/h (4 km/h) 0 mm0 mm 19.3 °C 19.5 °C 19.3 °C 60000 m 0   0 min 0 W/m² 1023 hPa
01:36 13.8 °C 12.9 °C 94 % 3 km/h (3 km/h) 0 mm0 mm 19.3 °C 19.5 °C 19.3 °C 60000 m 0   0 min 0 W/m² 1023.1 hPa
01:30 13.9 °C 12.9 °C 94 % 0 km/h (3 km/h) 0 mm0 mm 19.3 °C 19.5 °C 19.3 °C 60000 m 0   0 min 0 W/m² 1023.2 hPa
01:24 13.8 °C 12.7 °C 93 % 0 km/h (0 km/h) 0 mm0 mm 19.3 °C 19.5 °C 19.3 °C 60000 m 0   0 min 0 W/m² 1023.3 hPa
01:18 13.7 °C 12.6 °C 93 % 0 km/h (3 km/h) 0 mm0 mm 19.4 °C 19.5 °C 19.3 °C 60000 m 0   0 min 0 W/m² 1023.4 hPa
01:12 13.7 °C 12.6 °C 93 % 2 km/h (3 km/h) 0 mm0 mm 19.4 °C 19.5 °C 19.3 °C 60000 m 0   0 min 0 W/m² 1023.4 hPa
01:06 13.7 °C 12.6 °C 93 % 0 km/h (0 km/h) 0 mm0 mm 19.4 °C 19.5 °C 19.3 °C 60000 m 0   0 min 0 W/m² 1023.3 hPa
01:00 13.8 °C 12.5 °C 92 % 0 km/h (0 km/h) 0 mm0 mm 19.5 °C 19.5 °C 19.3 °C 60000 m 0   0 min 0 W/m² 1023.2 hPa 8 Octas
00:54 14.1 °C 12.8 °C 92 % 0 km/h (0 km/h) 0 mm0 mm 19.5 °C 19.5 °C 19.2 °C 60000 m 0   0 min 0 W/m² 1023.2 hPa
00:48 14.3 °C 13 °C 92 % 0 km/h (3 km/h) 0 mm0 mm 19.5 °C 19.5 °C 19.3 °C 60000 m 0   0 min 0 W/m² 1023.2 hPa
00:42 14.3 °C 13 °C 92 % 2 km/h (3 km/h) 0 mm0 mm 19.5 °C 19.5 °C 19.3 °C 60000 m 0   0 min 0 W/m² 1023.4 hPa
00:36 14.4 °C 12.9 °C 91 % 2 km/h (3 km/h) 0 mm0 mm 19.5 °C 19.5 °C 19.3 °C 60000 m 0   0 min 0 W/m² 1023.3 hPa
00:30 14.5 °C 13.2 °C 92 % 3 km/h (3 km/h) 0 mm0 mm 19.6 °C 19.6 °C 19.3 °C 60000 m 0   0 min 0 W/m² 1023.3 hPa
00:24 14.3 °C 12.7 °C 90 % 2 km/h (3 km/h) 0 mm0 mm 19.6 °C 19.5 °C 19.3 °C 60000 m 0   0 min 0 W/m² 1023.3 hPa
00:18 14.5 °C 13 °C 91 % 2 km/h (3 km/h) 0 mm0 mm 19.6 °C 19.5 °C 19.3 °C 60000 m 0   0 min 0 W/m² 1023.4 hPa
00:12 14.4 °C 13.1 °C 92 % 2 km/h (3 km/h) 0 mm0 mm 19.6 °C 19.6 °C 19.3 °C 60000 m 0   0 min 0 W/m² 1023.3 hPa
00:06 14.3 °C 12.8 °C 91 % 2 km/h (3 km/h) 0 mm0 mm 19.6 °C 19.6 °C 19.3 °C 60000 m 0   0 min 0 W/m² 1023.2 hPa
00:00 14.5 °C 13 °C 91 % 2 km/h (4 km/h) 0 mm0 mm 19.7 °C 19.6 °C 19.3 °C 60000 m 0   0 min 0 W/m² 1023.1 hPa 8 Octas

Données via Météo-France

Relevés météo à Quimper

Cette page rassemble les observations de la station de Quimper : température, humidité, vent, précipitations et pression atmosphérique. Les graphiques facilitent le suivi de la journée, tandis que le tableau donne accès aux mesures horaires et infra-horaires disponibles.

Pour replacer ces mesures dans leur contexte, consultez la climatologie de Quimper ainsi que ses normales et records. Retrouvez aussi la carte des observations météo en temps réel.